Escribe el Código OACI del Aeropuerto

Buscar por Aeropuerto o Ciudad

Información Meteorológica Actual

SCQP | La Araucanía Airport

Temuco, Chile

Última Actualización Hace 27 Minutos

Cielo Completamente Nublado

16 ºC de Temperatura

Vientos Leves a Moderados del SurOeste

Temperatura

16 ºC

Temperatura del Punto de Rocío

14 ºC

Humedad Relativa

87.99 %

Dirección del Viento

SurOeste (230º, Variando entre 200º y 260º)

Velocidad del Viento

11 km/h (06 kt)

Ráfagas

No Hay

Visibilidad

Mayor a 10 kilómetros

Presión Reducida a Nivel del Mar

1017 hPa (Hectopascales)

Capas de Nubes

60% a 90% de Cielo Cubierto con Base a 396 mts (1300 ft) de Altura.

90% a 100% de Cielo Cubierto con Base a 610 mts (2000 ft) de Altura.

METAR SCQP 071500Z 23006KT 200V260 9999 BKN013 OVC020 16/14 Q1017

Pronóstico Meteorológico

SCQP | La Araucanía Airport

Temuco, Chile

Pronóstico válido para las próximas 21 Horas

A partir de este momento se espera:

Cielo Mayormente Nublado

Vientos Moderados del Sur

En 3 a 5 horas se espera el comienzo de:

Vientos Moderados del Oeste

Temperatura Máxima

25 ºC en 3 Horas

Temperatura Mínima

12 ºC en -3 Horas

TAF SCQP 071008Z 0712/0812 20010KT 9999 SCT005 BKN010 TN12/0712Z TX25/0718Z BECMG 0718/0720 27010KT BKN030